Latest Weather Observations for Halls Creek

IDD60801

Issued at 6:35 pm CST Saturday 19 April 2014 (issued every 30 minutes, with the page automatically refreshed every 10 minutes)

About weather observations | Map of weather stations | Latest weather observations for NT | Other Formats
Station Details ID: 002012 Name: HALLS CREEK AIRPORT Lat: -18.23 Lon: 127.66 Height: 422.0 m
Data from the previous 72 hours. | See also: Recent months at Halls Creek
Date/Time
CST
Temp
°C
App
Temp
°C
Dew
Point
Rel
Hum
%
Delta-T
°C
Wind Press
QNH
hPa
Press
MSL
hPa
Rain
since 9 am
mm
Dir
 
Spd
km/h
Gust
km/h
Spd
kts
Gust
kts
19/06:30pm 28.9 26.3 4.0 20 12.9 ESE 7 15 4 8 1013.5 - 0.0
19/06:00pm 30.3 27.3 2.0 16 14.3 ESE 7 13 4 7 1013.2 - 0.0
19/05:30pm 31.2 27.7 3.3 17 14.5 ESE 11 19 6 10 1013.0 - 0.0
19/05:00pm 31.4 28.1 2.6 16 14.8 SE 9 20 5 11 1012.7 - 0.0
19/04:30pm 31.9 29.3 3.0 16 15.0 E 6 13 3 7 1012.7 1009.9 0.0
19/04:00pm 32.1 29.0 3.4 16 15.0 E 9 19 5 10 1012.7 - 0.0
19/03:30pm 31.9 29.5 4.1 17 14.7 ESE 6 15 3 8 1012.8 - 0.0
19/03:00pm 32.0 29.2 3.2 16 15.0 E 7 19 4 10 1013.1 - 0.0
19/02:30pm 32.2 29.6 4.4 17 14.8 E 7 15 4 8 1013.5 - 0.0
19/02:00pm 31.9 29.4 4.7 18 14.5 ENE 7 17 4 9 1013.9 - 0.0
19/01:30pm 31.4 28.2 3.0 16 14.7 E 9 26 5 14 1014.3 1011.6 0.0
19/01:00pm 31.7 28.3 4.0 17 14.6 ESE 11 20 6 11 1014.7 - 0.0
19/12:30pm 30.9 27.0 3.3 17 14.3 E 13 26 7 14 1015.3 - 0.0
19/12:00pm 30.5 26.7 3.8 18 13.9 ESE 13 26 7 14 1015.9 - 0.0
19/11:30am 29.4 25.5 3.3 19 13.4 ESE 13 24 7 13 1016.5 - 0.0
19/11:00am 29.4 25.9 3.3 19 13.4 ESE 11 20 6 11 1017.0 - 0.0
19/10:30am 28.0 23.9 2.5 19 12.8 ESE 13 19 7 10 1017.2 1014.5 0.0
19/10:00am 27.1 23.4 2.4 20 12.3 ESE 11 20 6 11 1017.6 - 0.0
19/09:30am 25.8 22.1 2.2 21 11.6 ESE 11 22 6 12 1017.3 - 0.0
19/09:00am 24.6 21.4 3.3 25 10.6 ESE 9 19 5 10 1017.1 - 0.0
19/08:30am 23.3 21.4 6.5 34 8.8 ESE 6 11 3 6 1017.0 - 0.0
19/08:00am 21.3 19.3 6.1 37 7.8 ESE 6 9 3 5 1016.8 - 0.0
19/07:30am 19.1 17.8 7.6 47 6.0 ESE 4 7 2 4 1016.7 1014.0 0.0
19/07:00am 18.9 17.2 7.5 47 5.9 ESE 6 9 3 5 1016.5 - 0.0
19/06:30am 18.5 17.5 8.7 53 5.2 E 4 6 2 3 1016.3 - 0.0
19/06:00am 18.4 17.8 9.0 54 5.0 SE 2 4 1 2 1016.1 - 0.0
19/05:30am 18.4 17.1 9.2 55 4.9 SSE 6 7 3 4 1016.1 - 0.0
19/05:00am 18.7 18.2 9.4 54 5.0 SSE 2 4 1 2 1016.2 - 0.0
19/04:30am 19.4 18.5 9.4 52 5.4 SSE 4 7 2 4 1016.2 1013.5 0.0
19/04:00am 19.8 19.4 9.7 52 5.5 ESE 2 6 1 3 1016.3 - 0.0
19/03:30am 20.0 19.3 10.2 53 5.4 ESE 4 6 2 3 1016.0 - 0.0
19/03:00am 20.0 19.8 10.4 54 5.3 SE 2 6 1 3 1016.0 - 0.0
19/02:30am 20.3 19.6 10.1 52 5.6 SE 4 6 2 3 1016.3 - 0.0
19/02:00am 20.9 20.2 10.0 49 6.0 SE 4 6 2 3 1016.5 - 0.0
19/01:30am 21.4 21.1 10.2 49 6.2 SE 2 4 1 2 1016.7 1014.0 0.0
19/01:00am 21.5 21.7 10.6 50 6.1 CALM 0 2 0 1 1016.9 - 0.0
19/12:30am 22.6 21.6 8.8 41 7.5 NNE 4 4 2 2 1017.1 - 0.0
19/12:00am 22.7 22.0 9.9 44 7.1 SE 4 7 2 4 1017.1 - 0.0
 
Date/Time
CST
Temp
°C
App
Temp
°C
Dew
Point
Rel
Hum
%
Delta-T
°C
Wind Press
QNH
hPa
Press
MSL
hPa
Rain
since 9 am
mm
Dir
 
Spd
km/h
Gust
km/h
Spd
kts
Gust
kts
18/11:30pm 23.1 21.9 9.5 42 7.5 SE 6 9 3 5 1017.0 - 0.0
18/11:00pm 24.0 22.6 8.8 38 8.3 ESE 6 11 3 6 1017.0 - 0.0
18/10:30pm 23.9 22.6 9.2 39 8.1 ESE 6 9 3 5 1016.9 1014.2 0.0
18/10:00pm 24.0 23.3 10.1 41 7.8 ESE 4 7 2 4 1016.8 - 0.0
18/09:30pm 24.3 23.6 10.0 40 8.0 SE 4 7 2 4 1016.7 - 0.0
18/09:00pm 25.5 24.1 8.8 34 9.2 ESE 6 9 3 5 1016.6 - 0.0
18/08:30pm 25.8 24.4 9.0 34 9.3 ESE 6 7 3 4 1016.3 - 0.0
18/08:00pm 26.3 25.1 9.6 35 9.4 ESE 6 9 3 5 1015.9 - 0.0
18/07:30pm 27.5 26.9 9.1 31 10.3 E 2 6 1 3 1015.5 1012.7 0.0
18/07:00pm 28.9 27.1 7.1 25 11.9 E 6 11 3 6 1015.2 - 0.0
18/06:30pm 30.0 27.9 6.7 23 12.7 E 7 15 4 8 1014.9 - 0.0
18/06:00pm 30.8 27.9 6.4 21 13.3 E 11 20 6 11 1014.5 - 0.0
18/05:30pm 31.5 28.2 6.5 21 13.7 E 13 26 7 14 1014.1 - 0.0
18/05:00pm 31.8 28.9 6.5 20 13.9 E 11 26 6 14 1014.1 - 0.0
18/04:30pm 32.5 29.7 6.9 20 14.2 E 11 22 6 12 1014.2 1011.5 0.0
18/04:00pm 32.1 28.7 6.1 19 14.2 ESE 13 26 7 14 1014.4 - 0.0
18/03:30pm 32.0 29.0 6.2 20 14.1 E 11 20 6 11 1014.5 - 0.0
18/03:00pm 32.0 28.7 6.5 20 14.0 ESE 13 24 7 13 1014.6 - 0.0
18/02:30pm 32.0 28.5 7.4 21 13.7 ESE 15 28 8 15 1014.9 - 0.0
18/02:00pm 31.6 27.7 7.0 21 13.6 ESE 17 28 9 15 1015.3 - 0.0
18/01:30pm 31.5 28.0 7.4 22 13.4 E 15 32 8 17 1015.7 1012.9 0.0
18/01:00pm 31.8 28.7 7.3 21 13.6 E 13 28 7 15 1016.0 - 0.0
18/12:30pm 31.4 28.0 7.8 23 13.2 ESE 15 30 8 16 1016.6 - 0.0
18/12:00pm 30.9 27.9 7.7 23 12.9 ESE 13 30 7 16 1017.0 - 0.0
18/11:30am 30.0 26.4 8.4 26 12.1 ESE 17 30 9 16 1017.4 - 0.0
18/11:00am 29.3 26.2 8.9 28 11.5 E 15 26 8 14 1017.8 - 0.0
18/10:30am 28.4 25.5 8.2 28 11.2 ESE 13 24 7 13 1017.8 1015.0 0.0
18/10:00am 28.0 25.7 8.9 30 10.7 ESE 11 24 6 13 1017.7 - 0.0
18/09:30am 26.6 24.0 9.2 33 9.7 ESE 13 20 7 11 1017.4 - 0.0
18/09:00am 25.1 23.4 9.7 37 8.6 ESE 9 19 5 10 1017.1 - 0.0
18/08:30am 24.0 23.1 10.5 42 7.6 E 6 15 3 8 1017.2 - 0.0
18/08:00am 22.4 22.1 11.5 50 6.2 ESE 4 6 2 3 1016.8 - 0.0
18/07:30am 20.9 20.5 11.1 53 5.5 ESE 4 7 2 4 1016.5 1013.8 0.0
18/07:00am 20.5 19.5 10.4 52 5.6 SE 6 11 3 6 1016.2 - 0.0
18/06:30am 20.1 19.6 10.9 55 5.1 SSE 4 9 2 5 1016.0 - 0.0
18/06:00am 20.4 19.9 10.9 54 5.3 S 4 4 2 2 1015.8 - 0.0
18/05:30am 20.4 20.4 11.1 55 5.2 S 2 7 1 4 1015.8 - 0.0
18/05:00am 20.3 20.9 11.8 58 4.8 CALM 0 4 0 2 1015.9 - 0.0
18/04:30am 20.2 20.8 11.9 59 4.7 CALM 0 6 0 3 1015.9 1013.2 0.0
18/04:00am 20.6 20.8 11.8 57 5.0 E 2 4 1 2 1016.0 - 0.0
18/03:30am 20.6 20.8 11.8 57 5.0 ESE 2 6 1 3 1016.0 - 0.0
18/03:00am 20.6 20.5 12.0 57 4.9 SE 4 6 2 3 1016.0 - 0.0
18/02:30am 20.9 20.7 11.7 55 5.2 SE 4 7 2 4 1016.1 - 0.0
18/02:00am 20.9 20.9 12.4 58 4.9 SE 4 6 2 3 1016.3 - 0.0
18/01:30am 21.3 21.6 12.2 56 5.2 ESE 2 4 1 2 1016.6 1013.9 0.0
18/01:00am 21.9 21.7 11.7 52 5.8 SE 4 6 2 3 1016.9 - 0.0
18/12:30am 22.6 22.3 11.5 49 6.3 ESE 4 7 2 4 1017.0 - 0.0
18/12:00am 22.6 22.3 11.5 49 6.3 SE 4 7 2 4 1017.1 - 0.0
 
Date/Time
CST
Temp
°C
App
Temp
°C
Dew
Point
Rel
Hum
%
Delta-T
°C
Wind Press
QNH
hPa
Press
MSL
hPa
Rain
since 9 am
mm
Dir
 
Spd
km/h
Gust
km/h
Spd
kts
Gust
kts
17/11:30pm 22.8 22.6 11.8 50 6.3 SE 4 6 2 3 1017.3 - 0.0
17/11:00pm 23.6 23.3 11.3 46 7.0 ESE 4 7 2 4 1017.3 - 0.0
17/10:30pm 24.1 23.3 11.1 44 7.4 ESE 6 9 3 5 1017.4 1014.7 0.0
17/10:00pm 24.5 24.1 11.2 43 7.6 ESE 4 6 2 3 1017.2 - 0.0
17/09:30pm 24.6 24.2 11.1 42 7.7 SE 4 7 2 4 1016.9 - 0.0
17/09:00pm 25.5 24.6 10.5 39 8.5 ESE 6 9 3 5 1016.5 - 0.0
17/08:30pm 25.5 25.3 11.7 42 8.0 ESE 4 6 2 3 1016.1 - 0.0
17/08:00pm 26.5 25.4 9.9 35 9.4 ESE 6 11 3 6 1015.7 - 0.0
17/07:30pm 27.2 26.2 10.4 35 9.6 ESE 6 9 3 5 1015.4 1012.6 0.0
17/07:00pm 28.5 27.1 8.9 29 11.0 E 6 11 3 6 1015.1 - 0.0
17/06:30pm 29.7 28.1 8.2 26 12.0 E 6 13 3 7 1014.6 - 0.0
17/06:00pm 30.8 29.1 8.2 24 12.7 ESE 7 13 4 7 1014.2 - 0.0
17/05:30pm 31.3 28.6 7.3 22 13.3 E 11 22 6 12 1014.1 - 0.0
17/05:00pm 31.7 29.5 7.8 22 13.4 E 9 20 5 11 1013.9 - 0.0
17/04:30pm 31.9 28.9 7.9 22 13.5 ENE 13 22 7 12 1013.8 1011.1 0.0
17/04:00pm 32.3 30.2 8.3 22 13.6 E 9 17 5 9 1013.9 - 0.0
17/03:30pm 32.1 30.1 8.8 23 13.3 E 9 19 5 10 1013.9 - 0.0
17/03:00pm 31.6 29.0 7.9 23 13.3 ENE 11 28 6 15 1014.2 - 0.0
17/02:30pm 31.8 29.3 8.2 23 13.3 ESE 11 24 6 13 1014.5 - 0.0
17/02:00pm 31.0 28.4 7.7 23 13.0 ENE 11 32 6 17 1014.9 - 0.0
17/01:30pm 31.2 28.6 7.7 23 13.1 E 11 24 6 13 1015.4 1012.6 0.0
17/01:00pm 30.2 26.6 6.8 23 12.8 ESE 15 33 8 18 1015.8 - 0.0
17/12:30pm 30.6 27.4 6.9 22 13.0 E 13 28 7 15 1016.3 - 0.0
17/12:00pm 30.0 27.2 7.0 23 12.6 E 11 24 6 13 1016.8 - 0.0
17/11:30am 28.9 25.2 6.2 23 12.2 E 15 28 8 15 1017.2 - 0.0
17/11:00am 28.7 25.9 8.4 28 11.3 ESE 13 22 7 12 1017.8 - 0.0
17/10:30am 27.6 24.2 7.7 28 10.9 E 15 28 8 15 1017.7 1014.9 0.0
17/10:00am 26.5 22.9 6.7 28 10.6 ESE 15 30 8 16 1017.6 - 0.0
17/09:30am 25.7 22.4 6.5 29 10.2 ESE 13 28 7 15 1017.3 - 0.0
17/09:00am 24.6 21.9 7.4 33 9.2 ESE 11 19 6 10 1017.2 - 0.0
17/08:30am 23.1 21.4 8.5 39 7.9 ESE 7 15 4 8 1017.0 - 0.0
17/08:00am 21.2 20.7 9.2 46 6.5 ESE 2 6 1 3 1016.8 - 0.0
17/07:30am 19.2 18.6 9.1 52 5.4 E 2 4 1 2 1016.5 1013.8 0.0
17/07:00am 18.3 17.9 9.8 57 4.6 E 2 4 1 2 1016.0 - 0.0
17/06:30am 18.7 18.3 9.8 56 4.8 SE 2 4 1 2 1015.8 - 0.0
17/06:00am 18.9 18.5 9.7 55 5.0 SE 2 6 1 3 1015.7 - 0.0
17/05:30am 18.7 18.8 10.1 57 4.7 CALM 0 4 0 2 1015.5 - 0.0
17/05:00am 19.0 18.8 10.4 57 4.7 E 2 4 1 2 1015.4 - 0.0
17/04:30am 19.2 18.9 10.0 55 5.0 ESE 2 6 1 3 1015.3 1012.5 0.0
17/04:00am 19.1 18.9 10.6 58 4.7 ESE 2 4 1 2 1015.4 - 0.0
17/03:30am 19.5 19.2 10.2 55 5.1 ESE 2 6 1 3 1015.3 - 0.0
17/03:00am 19.9 18.9 10.3 54 5.3 SE 6 7 3 4 1015.3 - 0.0
17/02:30am 20.5 19.1 9.7 50 5.9 SE 7 11 4 6 1015.4 - 0.0
17/02:00am 20.5 19.2 9.9 50 5.8 SE 7 11 4 6 1015.5 - 0.0
17/01:30am 20.8 19.8 10.3 51 5.8 SE 6 7 3 4 1015.8 1013.0 0.0
17/01:00am 21.6 20.6 10.2 48 6.3 ESE 6 9 3 5 1015.9 - 0.0
17/12:30am 21.8 20.8 10.3 48 6.4 ESE 6 9 3 5 1015.9 - 0.0
17/12:00am 22.3 21.3 10.3 46 6.7 ESE 6 9 3 5 1015.8 - 0.0
 
Date/Time
CST
Temp
°C
App
Temp
°C
Dew
Point
Rel
Hum
%
Delta-T
°C
Wind Press
QNH
hPa
Press
MSL
hPa
Rain
since 9 am
mm
Dir
 
Spd
km/h
Gust
km/h
Spd
kts
Gust
kts
16/11:30pm 22.2 21.6 10.4 47 6.6 ESE 4 7 2 4 1015.8 - 0.0
16/11:00pm 22.2 21.7 10.8 48 6.4 SE 4 7 2 4 1015.7 - 0.0
16/10:30pm 22.4 22.1 11.3 49 6.3 SE 4 4 2 2 1015.5 1012.7 0.0
16/10:00pm 23.1 22.6 10.9 46 6.9 SE 4 6 2 3 1015.5 - 0.0
16/09:30pm 23.5 23.1 11.0 45 7.1 SE 4 7 2 4 1015.3 - 0.0
16/09:00pm 23.9 23.4 10.9 44 7.4 SE 4 7 2 4 1015.1 - 0.0
16/08:30pm 23.9 23.8 12.2 48 6.8 SE 4 4 2 2 1014.7 - 0.0

Other Formats:

Comma delimited format used in spreadsheet applications
http://www.bom.gov.au/fwo/IDD60801/IDD60801.94212.axf

JavaScript Object Notation format (JSON) in row-major order
http://www.bom.gov.au/fwo/IDD60801/IDD60801.94212.json